グアルーリョス国際空港 (サンパウロ)の過去48時間の天気

グアルーリョス国際空港 (サンパウロ) (Guarulhos Civ / Mil )

現在時刻: 10/17 21:20 -03 (10/18 00:20 UTC) 以下の時間は現地時間です。

過去48時間のMETAR気象情報
時間 風向 風速(m/s) 視程 気温(℃) 湿度(%) 気圧(hPa) 天気現象
17 21:00 1 9000m 21 88 1017
17 20:00 南南東 1 10km以上 22 88 - 周辺で雷
17 19:00 静穏 0 10km以上 23 78 1015 周辺で雷
17 18:00 西南西 3 10km以上 23 83 1015 雷 周辺でしゅう雨
17 17:00 北東 4 9000m 26 74 1015 雷 周辺でしゅう雨
17 16:00 北西 4 10km以上 28 66 1014
17 15:00 北北西 5 10km以上 29 66 1014
17 14:00 北西 4 10km以上 28 70 1015
17 13:00 北西 4 10km以上 27 74 1016
17 12:00 北北東 3 10km以上 25 83 1017
17 11:00 5 10km以上 25 78 - 周辺でしゅう雨
17 10:00 4 10km以上 24 89 1018
17 09:00 4 10km以上 23 89 1018
17 08:00 北東 5 10km以上 21 100 1017
17 07:00 北東 5 6000m 20 100 1017
17 06:00 東北東 4 4000m 19 100 1016 弱い雨 もや
17 05:12 東北東 4 4000m 20 100 1015 雨 もや
17 05:00 北東 4 9000m 20 100 1015
17 04:00 東北東 4 9000m 20 100 1014
17 03:00 東北東 5 8000m 20 100 1014
17 02:00 東北東 6 8000m 20 100 1014
17 01:00 東北東 5 9000m 20 100 1015
17 00:00 北東 5 9000m 20 100 1016
16 23:00 東北東 4 10km以上 20 100 1016
16 22:00 東北東 3 10km以上 20 100 1016
16 21:00 東北東 3 10km以上 21 94 1016
16 20:00 東南東 3 10km以上 22 94 1015
16 19:00 南東 3 10km以上 22 94 1015
16 18:00 北東 4 10km以上 23 89 1014
16 17:00 東北東 5 10km以上 24 83 1013
16 16:00 東北東 4 7000m 24 78 1013
16 15:00 東北東 4 8000m 24 78 1014
16 14:00 4 8000m 23 83 1014
16 13:15 東北東 4 9000m 23 83 1015
16 13:00 東北東 4 9000m 22 88 1015
16 12:00 北東 4 9000m 22 88 1016
16 11:00 東北東 5 8000m 21 88 1016
16 10:00 東北東 3 7000m 19 100 1017
16 09:00 3 5000m 19 100 1017 もや
16 08:30 東北東 4 4000m 19 100 1017 もや
16 08:00 3 8000m 18 100 1016
16 07:00 2 8000m 18 100 1016
16 06:00 2 8000m 18 100 1015
16 05:00 2 10km以上 18 100 1015 弱い雨
16 04:00 南南東 1 10km以上 18 100 1015
16 03:00 3 10km以上 18 100 1014
16 02:00 東南東 3 10km以上 18 94 1014
16 01:00 東南東 2 10km以上 18 100 1015
16 00:40 東南東 2 10km以上 18 100 1015
16 00:00 東北東 2 10km以上 18 100 1015
15 23:00 東南東 2 10km以上 18 94 1016
15 22:00 南東 2 6000m 18 100 1016
SBGR 180000Z 17001KT 9000 NSC 21/19 Q1017
SBGR 172300Z 15002KT 9999 VCTS FEW030 FEW050CB BKN080 22/20 Q10 16
SBGR 172200Z 00000KT 9999 VCTS FEW030 FEW050CB 23/19 Q1015 RETS
SBGR 172100Z 24005KT 9999 TS VCSH SCT030 FEW050CB BKN100 23/20 Q1015
SBGR 172000Z 05007KT 9000 TS VCSH BKN030 FEW045CB BKN100 26/21 Q1015
SBGR 171900Z 32008KT 9999 TS BKN030 FEW045CB BKN100 28/21 Q1014
SBGR 171800Z 33009KT 9999 SCT030 BKN100 29/22 Q1014
SBGR 171700Z 31007KT 9999 BKN030 BKN100 28/22 Q1015
SBGR 171600Z 32007KT 9999 BKN025 BKN100 27/22 Q1016
SBGR 171500Z 03006KT 9999 SCT020 BKN100 25/22 Q1017
SBGR 171400Z 36009KT 9999 VCSH SCT020 FEW045TCU BKN100 25/21 Q1 018
SBGR 171300Z 35008KT 9999 SCT010 BKN100 24/22 Q1018
SBGR 171200Z 08008KT 9999 SCT007 BKN080 23/21 Q1018
SBGR 171100Z 05009KT 9999 BKN007 21/21 Q1017
SBGR 171000Z 05010KT 6000 BKN006 BKN100 20/20 Q1017
SBGR 170900Z 06008KT 4000 -RA BR BKN008 19/19 Q1016 RERA
SBGR 170812Z 06007KT 4000 RA BR BKN008 BKN100 20/20 Q1015
SBGR 170800Z 05008KT 9000 OVC008 20/20 Q1015
SBGR 170700Z 06008KT 9000 OVC007 20/20 Q1014
SBGR 170600Z 07010KT 8000 OVC008 20/20 Q1014
SBGR 170500Z 07011KT 8000 OVC009 20/20 Q1014
SBGR 170400Z 06009KT 9000 OVC007 20/20 Q1015
SBGR 170300Z 05009KT 9000 OVC009 20/20 Q1016
SBGR 170200Z 06008KT 9999 OVC011 20/20 Q1016
SBGR 170100Z 07006KT 9999 BKN010 BKN015 20/20 Q1016
SBGR 170000Z 06006KT 9999 BKN011 SCT023 21/20 Q1016
SBGR 162300Z 11006KT 9999 BKN015 BKN023 22/21 Q1015
SBGR 162200Z 14005KT 9999 BKN015 22/21 Q1015
SBGR 162100Z 04007KT 9999 BKN021 23/21 Q1014
SBGR 162000Z 06009KT 9999 BKN021 24/21 Q1013
SBGR 161900Z 06007KT 7000 BKN019 24/20 Q1013
SBGR 161800Z 07007KT 8000 SCT015 24/20 Q1014
SBGR 161700Z 08007KT 8000 BKN015 23/20 Q1014
SBGR 161615Z 06007KT 9000 BKN015 23/20 Q1015
SBGR 161600Z 06007KT 9000 BKN011 22/20 Q1015
SBGR 161500Z 05008KT 9000 OVC011 22/20 Q1016
SBGR 161400Z 07009KT 8000 BKN008 OVC011 21/19 Q1016
SBGR 161300Z 06006KT 7000 OVC005 19/19 Q1017
SBGR 161200Z 09005KT 5000 BR OVC005 19/19 Q1017
SBGR 161130Z 07007KT 4000 BR OVC005 19/19 Q1017
SBGR 161100Z 08005KT 8000 OVC006 18/18 Q1016
SBGR 161000Z 08004KT 8000 OVC006 18/18 Q1016
SBGR 160900Z 10003KT 8000 BKN005 BKN011 18/18 Q1015
SBGR 160800Z 10003KT 9999 -RA BKN007 BKN011 18/18 Q1015
SBGR 160700Z 15002KT 9999 OVC007 18/18 Q1015
SBGR 160600Z 09005KT 9999 OVC009 18/18 Q1014
SBGR 160500Z 12005KT 9999 OVC009 18/17 Q1014
SBGR 160400Z 12003KT 9999 BKN009 OVC020 18/18 Q1015
SBGR 160340Z 12003KT 9999 BKN009 OVC015 18/18 Q1015
SBGR 160300Z 06003KT 9999 OVC015 18/18 Q1015
SBGR 160200Z 12004KT 9999 BKN009 OVC013 18/17 Q1016
SBGR 160100Z 14004KT 6000 BKN006 OVC013 18/18 Q1016